sensor_id;sensor_type;location;lat;lon;timestamp;temperature;humidity
57664;DHT22;43493;53.098;6.064;2023-12-29T00:00:41;9.80;99.90
57664;DHT22;43493;53.098;6.064;2023-12-29T00:03:07;9.80;99.90
57664;DHT22;43493;53.098;6.064;2023-12-29T00:05:33;9.80;99.90
57664;DHT22;43493;53.098;6.064;2023-12-29T00:07:58;9.80;99.90
57664;DHT22;43493;53.098;6.064;2023-12-29T00:10:24;9.80;99.90
57664;DHT22;43493;53.098;6.064;2023-12-29T00:12:50;9.70;99.90
57664;DHT22;43493;53.098;6.064;2023-12-29T00:15:19;9.80;99.90
57664;DHT22;43493;53.098;6.064;2023-12-29T00:17:45;9.80;99.90
57664;DHT22;43493;53.098;6.064;2023-12-29T00:20:12;9.80;99.90
57664;DHT22;43493;53.098;6.064;2023-12-29T00:22:38;9.70;99.90
57664;DHT22;43493;53.098;6.064;2023-12-29T00:25:04;9.70;99.90
57664;DHT22;43493;53.098;6.064;2023-12-29T00:27:29;9.70;99.90
57664;DHT22;43493;53.098;6.064;2023-12-29T00:29:55;9.70;99.90
57664;DHT22;43493;53.098;6.064;2023-12-29T00:32:21;9.70;99.90
57664;DHT22;43493;53.098;6.064;2023-12-29T00:34:46;9.70;99.90
57664;DHT22;43493;53.098;6.064;2023-12-29T00:37:12;9.70;99.90
57664;DHT22;43493;53.098;6.064;2023-12-29T00:39:38;9.70;99.90
57664;DHT22;43493;53.098;6.064;2023-12-29T00:42:07;9.70;99.90
57664;DHT22;43493;53.098;6.064;2023-12-29T00:44:33;9.80;99.90
57664;DHT22;43493;53.098;6.064;2023-12-29T00:47:00;9.70;99.90
57664;DHT22;43493;53.098;6.064;2023-12-29T00:49:26;9.70;99.90
57664;DHT22;43493;53.098;6.064;2023-12-29T00:51:52;9.80;99.90
57664;DHT22;43493;53.098;6.064;2023-12-29T00:54:18;9.70;99.90
57664;DHT22;43493;53.098;6.064;2023-12-29T00:56:51;9.70;99.90
57664;DHT22;43493;53.098;6.064;2023-12-29T00:59:18;9.70;99.90
57664;DHT22;43493;53.098;6.064;2023-12-29T01:01:45;9.70;99.90
57664;DHT22;43493;53.098;6.064;2023-12-29T01:04:11;9.70;99.90
57664;DHT22;43493;53.098;6.064;2023-12-29T01:06:37;9.70;99.90
57664;DHT22;43493;53.098;6.064;2023-12-29T01:09:02;9.70;99.90
57664;DHT22;43493;53.098;6.064;2023-12-29T01:11:28;9.70;99.90
57664;DHT22;43493;53.098;6.064;2023-12-29T01:13:54;9.60;99.90
57664;DHT22;43493;53.098;6.064;2023-12-29T01:16:20;9.60;99.90
57664;DHT22;43493;53.098;6.064;2023-12-29T01:18:46;9.60;99.90
57664;DHT22;43493;53.098;6.064;2023-12-29T01:21:11;9.60;99.90
57664;DHT22;43493;53.098;6.064;2023-12-29T01:23:37;9.50;99.90
57664;DHT22;43493;53.098;6.064;2023-12-29T01:26:03;9.60;99.90
57664;DHT22;43493;53.098;6.064;2023-12-29T01:28:28;9.60;99.90
57664;DHT22;43493;53.098;6.064;2023-12-29T01:30:54;9.60;99.90
57664;DHT22;43493;53.098;6.064;2023-12-29T01:33:20;9.60;99.90
57664;DHT22;43493;53.098;6.064;2023-12-29T01:35:47;9.60;99.90
57664;DHT22;43493;53.098;6.064;2023-12-29T01:38:13;9.60;99.90
57664;DHT22;43493;53.098;6.064;2023-12-29T01:40:45;9.60;99.90
57664;DHT22;43493;53.098;6.064;2023-12-29T01:43:11;9.60;99.90
57664;DHT22;43493;53.098;6.064;2023-12-29T01:45:37;9.50;99.90
57664;DHT22;43493;53.098;6.064;2023-12-29T01:48:03;9.50;99.90
57664;DHT22;43493;53.098;6.064;2023-12-29T01:50:29;9.40;99.90
57664;DHT22;43493;53.098;6.064;2023-12-29T01:52:55;9.40;99.90
57664;DHT22;43493;53.098;6.064;2023-12-29T01:55:22;9.40;99.90
57664;DHT22;43493;53.098;6.064;2023-12-29T01:57:50;9.40;99.90
57664;DHT22;43493;53.098;6.064;2023-12-29T02:00:17;9.30;99.90
57664;DHT22;43493;53.098;6.064;2023-12-29T02:02:45;9.30;99.90
57664;DHT22;43493;53.098;6.064;2023-12-29T02:05:14;9.30;99.90
57664;DHT22;43493;53.098;6.064;2023-12-29T02:07:42;9.20;99.90
57664;DHT22;43493;53.098;6.064;2023-12-29T02:10:08;9.10;99.90
57664;DHT22;43493;53.098;6.064;2023-12-29T02:12:37;9.10;99.90
57664;DHT22;43493;53.098;6.064;2023-12-29T02:15:04;9.00;99.90
57664;DHT22;43493;53.098;6.064;2023-12-29T02:17:56;8.90;99.90
57664;DHT22;43493;53.098;6.064;2023-12-29T02:20:25;8.90;99.90
57664;DHT22;43493;53.098;6.064;2023-12-29T02:22:51;8.90;99.90
57664;DHT22;43493;53.098;6.064;2023-12-29T02:25:17;8.80;99.90
57664;DHT22;43493;53.098;6.064;2023-12-29T02:28:01;8.90;99.90
57664;DHT22;43493;53.098;6.064;2023-12-29T02:33:01;9.00;99.90
57664;DHT22;43493;53.098;6.064;2023-12-29T02:35:34;9.00;99.90
57664;DHT22;43493;53.098;6.064;2023-12-29T02:38:01;9.00;99.90
57664;DHT22;43493;53.098;6.064;2023-12-29T02:40:27;9.00;99.90
57664;DHT22;43493;53.098;6.064;2023-12-29T02:42:53;9.00;99.90
57664;DHT22;43493;53.098;6.064;2023-12-29T02:45:18;9.10;99.90
57664;DHT22;43493;53.098;6.064;2023-12-29T02:47:44;9.10;99.90
57664;DHT22;43493;53.098;6.064;2023-12-29T02:50:11;9.10;99.90
57664;DHT22;43493;53.098;6.064;2023-12-29T02:52:37;9.20;99.90
57664;DHT22;43493;53.098;6.064;2023-12-29T02:55:03;9.20;99.90
57664;DHT22;43493;53.098;6.064;2023-12-29T02:57:29;9.30;99.90
57664;DHT22;43493;53.098;6.064;2023-12-29T02:59:55;9.30;99.90
57664;DHT22;43493;53.098;6.064;2023-12-29T03:02:22;9.30;99.90
57664;DHT22;43493;53.098;6.064;2023-12-29T03:04:48;9.40;99.90
57664;DHT22;43493;53.098;6.064;2023-12-29T03:07:14;9.40;99.90
57664;DHT22;43493;53.098;6.064;2023-12-29T03:09:39;9.40;99.90
57664;DHT22;43493;53.098;6.064;2023-12-29T03:12:06;9.40;99.90
57664;DHT22;43493;53.098;6.064;2023-12-29T03:14:32;9.40;99.90
57664;DHT22;43493;53.098;6.064;2023-12-29T03:16:58;9.50;99.90
57664;DHT22;43493;53.098;6.064;2023-12-29T03:19:24;9.50;99.90
57664;DHT22;43493;53.098;6.064;2023-12-29T03:21:50;9.50;99.90
57664;DHT22;43493;53.098;6.064;2023-12-29T03:24:16;9.50;99.90
57664;DHT22;43493;53.098;6.064;2023-12-29T03:26:42;9.50;99.90
57664;DHT22;43493;53.098;6.064;2023-12-29T03:29:08;9.50;99.90
57664;DHT22;43493;53.098;6.064;2023-12-29T03:31:34;9.50;99.90
57664;DHT22;43493;53.098;6.064;2023-12-29T03:33:59;9.40;99.90
57664;DHT22;43493;53.098;6.064;2023-12-29T03:36:25;9.40;99.90
57664;DHT22;43493;53.098;6.064;2023-12-29T03:38:51;9.40;99.90
57664;DHT22;43493;53.098;6.064;2023-12-29T03:41:16;9.40;99.90
57664;DHT22;43493;53.098;6.064;2023-12-29T03:43:42;9.30;99.90
57664;DHT22;43493;53.098;6.064;2023-12-29T03:46:18;9.30;99.90
57664;DHT22;43493;53.098;6.064;2023-12-29T03:48:44;9.30;99.90
57664;DHT22;43493;53.098;6.064;2023-12-29T03:51:10;9.30;99.90
57664;DHT22;43493;53.098;6.064;2023-12-29T03:53:36;9.30;99.90
57664;DHT22;43493;53.098;6.064;2023-12-29T03:56:08;9.30;99.90
57664;DHT22;43493;53.098;6.064;2023-12-29T03:58:35;9.30;99.90
57664;DHT22;43493;53.098;6.064;2023-12-29T04:01:01;9.30;99.90
57664;DHT22;43493;53.098;6.064;2023-12-29T04:03:27;9.30;99.90
57664;DHT22;43493;53.098;6.064;2023-12-29T04:05:53;9.30;99.90
57664;DHT22;43493;53.098;6.064;2023-12-29T04:08:19;9.30;99.90
57664;DHT22;43493;53.098;6.064;2023-12-29T04:10:45;9.30;99.90
57664;DHT22;43493;53.098;6.064;2023-12-29T04:13:10;9.30;99.90
57664;DHT22;43493;53.098;6.064;2023-12-29T04:15:36;9.30;99.90
57664;DHT22;43493;53.098;6.064;2023-12-29T04:18:02;9.30;99.90
57664;DHT22;43493;53.098;6.064;2023-12-29T04:20:28;9.20;99.90
57664;DHT22;43493;53.098;6.064;2023-12-29T04:22:54;9.30;99.90
57664;DHT22;43493;53.098;6.064;2023-12-29T04:25:20;9.30;99.90
57664;DHT22;43493;53.098;6.064;2023-12-29T04:27:46;9.30;99.90
57664;DHT22;43493;53.098;6.064;2023-12-29T04:30:12;9.30;99.90
57664;DHT22;43493;53.098;6.064;2023-12-29T04:32:37;9.20;99.90
57664;DHT22;43493;53.098;6.064;2023-12-29T04:35:04;9.20;99.90
57664;DHT22;43493;53.098;6.064;2023-12-29T04:37:29;9.20;99.90
57664;DHT22;43493;53.098;6.064;2023-12-29T04:39:55;9.20;99.90
57664;DHT22;43493;53.098;6.064;2023-12-29T04:42:21;9.20;99.90
57664;DHT22;43493;53.098;6.064;2023-12-29T04:44:46;9.20;99.90
57664;DHT22;43493;53.098;6.064;2023-12-29T04:47:12;9.20;99.90
57664;DHT22;43493;53.098;6.064;2023-12-29T04:49:38;9.20;99.90
57664;DHT22;43493;53.098;6.064;2023-12-29T04:52:04;9.20;99.90
57664;DHT22;43493;53.098;6.064;2023-12-29T04:54:30;9.20;99.90
57664;DHT22;43493;53.098;6.064;2023-12-29T04:56:55;9.20;99.90
57664;DHT22;43493;53.098;6.064;2023-12-29T04:59:21;9.20;99.90
57664;DHT22;43493;53.098;6.064;2023-12-29T05:01:47;9.30;99.90
57664;DHT22;43493;53.098;6.064;2023-12-29T05:04:12;9.30;99.90
57664;DHT22;43493;53.098;6.064;2023-12-29T05:06:40;9.40;99.90
57664;DHT22;43493;53.098;6.064;2023-12-29T05:09:06;9.40;99.90
57664;DHT22;43493;53.098;6.064;2023-12-29T05:11:32;9.40;99.90
57664;DHT22;43493;53.098;6.064;2023-12-29T05:13:58;9.30;99.90
57664;DHT22;43493;53.098;6.064;2023-12-29T05:16:23;9.40;99.90
57664;DHT22;43493;53.098;6.064;2023-12-29T05:18:49;9.30;99.90
57664;DHT22;43493;53.098;6.064;2023-12-29T05:21:18;9.30;99.90
57664;DHT22;43493;53.098;6.064;2023-12-29T05:23:44;9.30;99.90
57664;DHT22;43493;53.098;6.064;2023-12-29T05:26:14;9.30;99.90
57664;DHT22;43493;53.098;6.064;2023-12-29T05:28:40;9.30;99.90
57664;DHT22;43493;53.098;6.064;2023-12-29T05:31:06;9.30;99.90
57664;DHT22;43493;53.098;6.064;2023-12-29T05:33:32;9.30;99.90
57664;DHT22;43493;53.098;6.064;2023-12-29T05:35:58;9.30;99.90
57664;DHT22;43493;53.098;6.064;2023-12-29T05:38:24;9.20;99.90
57664;DHT22;43493;53.098;6.064;2023-12-29T05:40:50;9.30;99.90
57664;DHT22;43493;53.098;6.064;2023-12-29T05:43:16;9.30;99.90
57664;DHT22;43493;53.098;6.064;2023-12-29T05:45:42;9.30;99.90
57664;DHT22;43493;53.098;6.064;2023-12-29T05:48:08;9.30;99.90
57664;DHT22;43493;53.098;6.064;2023-12-29T05:50:33;9.30;99.90
57664;DHT22;43493;53.098;6.064;2023-12-29T05:52:59;9.30;99.90
57664;DHT22;43493;53.098;6.064;2023-12-29T05:55:25;9.30;99.90
57664;DHT22;43493;53.098;6.064;2023-12-29T05:57:51;9.40;99.90
57664;DHT22;43493;53.098;6.064;2023-12-29T06:00:16;9.40;99.90
57664;DHT22;43493;53.098;6.064;2023-12-29T06:02:42;9.40;99.90
57664;DHT22;43493;53.098;6.064;2023-12-29T06:05:10;9.50;99.90
57664;DHT22;43493;53.098;6.064;2023-12-29T06:07:37;9.50;99.90
57664;DHT22;43493;53.098;6.064;2023-12-29T06:10:03;9.50;99.90
57664;DHT22;43493;53.098;6.064;2023-12-29T06:12:29;9.50;99.90
57664;DHT22;43493;53.098;6.064;2023-12-29T06:14:54;9.50;99.90
57664;DHT22;43493;53.098;6.064;2023-12-29T06:17:20;9.50;99.90
57664;DHT22;43493;53.098;6.064;2023-12-29T06:19:46;9.50;99.90
57664;DHT22;43493;53.098;6.064;2023-12-29T06:22:11;9.50;99.90
57664;DHT22;43493;53.098;6.064;2023-12-29T06:24:40;9.40;99.90
57664;DHT22;43493;53.098;6.064;2023-12-29T06:27:07;9.40;99.90
57664;DHT22;43493;53.098;6.064;2023-12-29T06:29:33;9.40;99.90
57664;DHT22;43493;53.098;6.064;2023-12-29T06:31:59;9.40;99.90
57664;DHT22;43493;53.098;6.064;2023-12-29T06:34:25;9.40;99.90
57664;DHT22;43493;53.098;6.064;2023-12-29T06:36:51;9.40;99.90
57664;DHT22;43493;53.098;6.064;2023-12-29T06:39:16;9.40;99.90
57664;DHT22;43493;53.098;6.064;2023-12-29T06:41:42;9.40;99.90
57664;DHT22;43493;53.098;6.064;2023-12-29T06:44:08;9.30;99.90
57664;DHT22;43493;53.098;6.064;2023-12-29T06:46:34;9.40;99.90
57664;DHT22;43493;53.098;6.064;2023-12-29T06:49:02;9.30;99.90
57664;DHT22;43493;53.098;6.064;2023-12-29T06:51:28;9.40;99.90
57664;DHT22;43493;53.098;6.064;2023-12-29T06:53:54;9.30;99.90
57664;DHT22;43493;53.098;6.064;2023-12-29T06:56:20;9.40;99.90
57664;DHT22;43493;53.098;6.064;2023-12-29T06:58:46;9.40;99.90
57664;DHT22;43493;53.098;6.064;2023-12-29T07:01:12;9.40;99.90
57664;DHT22;43493;53.098;6.064;2023-12-29T07:03:38;9.40;99.90
57664;DHT22;43493;53.098;6.064;2023-12-29T07:06:04;9.40;99.90
57664;DHT22;43493;53.098;6.064;2023-12-29T07:08:29;9.30;99.90
57664;DHT22;43493;53.098;6.064;2023-12-29T07:10:55;9.40;99.90
57664;DHT22;43493;53.098;6.064;2023-12-29T07:13:21;9.30;99.90
57664;DHT22;43493;53.098;6.064;2023-12-29T07:15:47;9.40;99.90
57664;DHT22;43493;53.098;6.064;2023-12-29T07:18:14;9.40;99.90
57664;DHT22;43493;53.098;6.064;2023-12-29T07:20:40;9.40;99.90
57664;DHT22;43493;53.098;6.064;2023-12-29T07:23:05;9.50;99.90
57664;DHT22;43493;53.098;6.064;2023-12-29T07:25:31;9.50;99.90
57664;DHT22;43493;53.098;6.064;2023-12-29T07:27:57;9.50;99.90
57664;DHT22;43493;53.098;6.064;2023-12-29T07:30:22;9.50;99.90
57664;DHT22;43493;53.098;6.064;2023-12-29T07:32:48;9.50;99.90
57664;DHT22;43493;53.098;6.064;2023-12-29T07:35:14;9.50;99.90
57664;DHT22;43493;53.098;6.064;2023-12-29T07:37:43;9.50;99.90
57664;DHT22;43493;53.098;6.064;2023-12-29T07:40:13;9.50;99.90
57664;DHT22;43493;53.098;6.064;2023-12-29T07:42:40;9.50;99.90
57664;DHT22;43493;53.098;6.064;2023-12-29T07:45:06;9.50;99.90
57664;DHT22;43493;53.098;6.064;2023-12-29T07:47:32;9.50;99.90
57664;DHT22;43493;53.098;6.064;2023-12-29T07:49:58;9.50;99.90
57664;DHT22;43493;53.098;6.064;2023-12-29T07:52:24;9.50;99.90
57664;DHT22;43493;53.098;6.064;2023-12-29T07:54:49;9.50;99.90
57664;DHT22;43493;53.098;6.064;2023-12-29T07:57:15;9.40;99.90
57664;DHT22;43493;53.098;6.064;2023-12-29T07:59:41;9.40;99.90
57664;DHT22;43493;53.098;6.064;2023-12-29T08:02:07;9.40;99.90
57664;DHT22;43493;53.098;6.064;2023-12-29T08:04:32;9.40;99.90
57664;DHT22;43493;53.098;6.064;2023-12-29T08:06:58;9.40;99.90
57664;DHT22;43493;53.098;6.064;2023-12-29T08:09:25;9.40;99.90
57664;DHT22;43493;53.098;6.064;2023-12-29T08:11:51;9.40;99.90
57664;DHT22;43493;53.098;6.064;2023-12-29T08:14:17;9.40;99.90
57664;DHT22;43493;53.098;6.064;2023-12-29T08:16:42;9.40;99.90
57664;DHT22;43493;53.098;6.064;2023-12-29T08:19:08;9.30;99.90
57664;DHT22;43493;53.098;6.064;2023-12-29T08:21:36;9.30;99.90
57664;DHT22;43493;53.098;6.064;2023-12-29T08:24:02;9.30;99.90
57664;DHT22;43493;53.098;6.064;2023-12-29T08:26:28;9.30;99.90
57664;DHT22;43493;53.098;6.064;2023-12-29T08:28:54;9.30;99.90
57664;DHT22;43493;53.098;6.064;2023-12-29T08:31:20;9.30;99.90
57664;DHT22;43493;53.098;6.064;2023-12-29T08:33:47;9.30;99.90
57664;DHT22;43493;53.098;6.064;2023-12-29T08:36:13;9.30;99.90
57664;DHT22;43493;53.098;6.064;2023-12-29T08:38:39;9.20;99.90
57664;DHT22;43493;53.098;6.064;2023-12-29T08:41:05;9.30;99.90
57664;DHT22;43493;53.098;6.064;2023-12-29T08:43:31;9.20;99.90
57664;DHT22;43493;53.098;6.064;2023-12-29T08:45:56;9.20;99.90
57664;DHT22;43493;53.098;6.064;2023-12-29T08:48:22;9.20;99.90
57664;DHT22;43493;53.098;6.064;2023-12-29T08:50:49;9.20;99.90
57664;DHT22;43493;53.098;6.064;2023-12-29T08:53:15;9.20;99.90
57664;DHT22;43493;53.098;6.064;2023-12-29T08:55:44;9.20;99.90
57664;DHT22;43493;53.098;6.064;2023-12-29T08:58:09;9.20;99.90
57664;DHT22;43493;53.098;6.064;2023-12-29T09:00:35;9.20;99.90
57664;DHT22;43493;53.098;6.064;2023-12-29T09:03:01;9.20;99.90
57664;DHT22;43493;53.098;6.064;2023-12-29T09:05:26;9.20;99.90
57664;DHT22;43493;53.098;6.064;2023-12-29T09:07:52;9.20;99.90
57664;DHT22;43493;53.098;6.064;2023-12-29T09:10:18;9.20;99.90
57664;DHT22;43493;53.098;6.064;2023-12-29T09:12:43;9.20;99.90
57664;DHT22;43493;53.098;6.064;2023-12-29T09:15:09;9.30;99.90
57664;DHT22;43493;53.098;6.064;2023-12-29T09:17:35;9.30;99.90
57664;DHT22;43493;53.098;6.064;2023-12-29T09:20:01;9.30;99.90
57664;DHT22;43493;53.098;6.064;2023-12-29T09:22:27;9.30;99.90
57664;DHT22;43493;53.098;6.064;2023-12-29T09:24:54;9.40;99.90
57664;DHT22;43493;53.098;6.064;2023-12-29T09:27:21;9.40;99.90
57664;DHT22;43493;53.098;6.064;2023-12-29T09:29:46;9.40;99.90
57664;DHT22;43493;53.098;6.064;2023-12-29T09:32:12;9.50;99.90
57664;DHT22;43493;53.098;6.064;2023-12-29T09:34:38;9.50;99.90
57664;DHT22;43493;53.098;6.064;2023-12-29T09:37:04;9.50;99.90
57664;DHT22;43493;53.098;6.064;2023-12-29T09:39:29;9.50;99.90
57664;DHT22;43493;53.098;6.064;2023-12-29T09:41:58;9.50;99.90
57664;DHT22;43493;53.098;6.064;2023-12-29T09:44:27;9.50;99.90
57664;DHT22;43493;53.098;6.064;2023-12-29T09:47:00;9.50;99.90
57664;DHT22;43493;53.098;6.064;2023-12-29T09:49:29;9.50;99.90
57664;DHT22;43493;53.098;6.064;2023-12-29T09:51:57;9.50;99.90
57664;DHT22;43493;53.098;6.064;2023-12-29T09:54:24;9.50;99.90
57664;DHT22;43493;53.098;6.064;2023-12-29T09:56:51;9.60;99.90
57664;DHT22;43493;53.098;6.064;2023-12-29T09:59:16;9.60;99.90
57664;DHT22;43493;53.098;6.064;2023-12-29T10:01:45;9.60;99.90
57664;DHT22;43493;53.098;6.064;2023-12-29T10:04:12;9.60;99.90
57664;DHT22;43493;53.098;6.064;2023-12-29T10:06:41;9.60;99.90
57664;DHT22;43493;53.098;6.064;2023-12-29T10:09:12;9.60;99.90
57664;DHT22;43493;53.098;6.064;2023-12-29T10:11:40;9.60;99.90
57664;DHT22;43493;53.098;6.064;2023-12-29T10:14:35;9.70;99.90
57664;DHT22;43493;53.098;6.064;2023-12-29T10:17:32;9.60;99.90
57664;DHT22;43493;53.098;6.064;2023-12-29T10:20:32;9.60;99.90
57664;DHT22;43493;53.098;6.064;2023-12-29T10:23:06;9.60;99.90
57664;DHT22;43493;53.098;6.064;2023-12-29T10:25:34;9.50;99.90
57664;DHT22;43493;53.098;6.064;2023-12-29T10:28:00;9.50;99.90
57664;DHT22;43493;53.098;6.064;2023-12-29T10:30:26;9.50;99.90
57664;DHT22;43493;53.098;6.064;2023-12-29T10:32:52;9.40;99.90
57664;DHT22;43493;53.098;6.064;2023-12-29T10:35:18;9.40;99.90
57664;DHT22;43493;53.098;6.064;2023-12-29T10:37:44;9.40;99.90
57664;DHT22;43493;53.098;6.064;2023-12-29T10:40:17;9.40;99.90
57664;DHT22;43493;53.098;6.064;2023-12-29T10:42:56;9.30;99.90
57664;DHT22;43493;53.098;6.064;2023-12-29T10:45:30;9.30;99.90
57664;DHT22;43493;53.098;6.064;2023-12-29T10:47:56;9.30;99.90
57664;DHT22;43493;53.098;6.064;2023-12-29T10:50:22;9.30;99.90
57664;DHT22;43493;53.098;6.064;2023-12-29T10:52:48;9.30;99.90
57664;DHT22;43493;53.098;6.064;2023-12-29T10:55:13;9.30;99.90
57664;DHT22;43493;53.098;6.064;2023-12-29T10:57:40;9.30;99.90
57664;DHT22;43493;53.098;6.064;2023-12-29T11:00:07;9.30;99.90
57664;DHT22;43493;53.098;6.064;2023-12-29T11:02:34;9.30;99.90
57664;DHT22;43493;53.098;6.064;2023-12-29T11:05:04;9.30;99.90
57664;DHT22;43493;53.098;6.064;2023-12-29T11:07:35;9.20;99.90
57664;DHT22;43493;53.098;6.064;2023-12-29T11:10:03;9.20;99.90
57664;DHT22;43493;53.098;6.064;2023-12-29T11:12:34;9.20;99.90
57664;DHT22;43493;53.098;6.064;2023-12-29T11:15:02;9.20;99.90
57664;DHT22;43493;53.098;6.064;2023-12-29T11:17:30;9.30;99.90
57664;DHT22;43493;53.098;6.064;2023-12-29T11:20:01;9.40;99.90
57664;DHT22;43493;53.098;6.064;2023-12-29T11:22:31;9.40;99.90
57664;DHT22;43493;53.098;6.064;2023-12-29T11:24:58;9.50;99.90
57664;DHT22;43493;53.098;6.064;2023-12-29T11:27:31;9.40;99.90
57664;DHT22;43493;53.098;6.064;2023-12-29T11:29:59;9.40;99.90
57664;DHT22;43493;53.098;6.064;2023-12-29T11:43:32;9.30;99.90
57664;DHT22;43493;53.098;6.064;2023-12-29T11:45:58;9.20;99.90
57664;DHT22;43493;53.098;6.064;2023-12-29T11:48:55;9.20;99.90
57664;DHT22;43493;53.098;6.064;2023-12-29T11:51:49;9.20;99.90
57664;DHT22;43493;53.098;6.064;2023-12-29T11:54:25;9.20;99.90
57664;DHT22;43493;53.098;6.064;2023-12-29T11:56:53;9.20;99.90
57664;DHT22;43493;53.098;6.064;2023-12-29T12:02:06;9.10;99.90
57664;DHT22;43493;53.098;6.064;2023-12-29T12:04:44;9.10;99.90
57664;DHT22;43493;53.098;6.064;2023-12-29T12:07:17;9.10;99.90
57664;DHT22;43493;53.098;6.064;2023-12-29T12:12:49;9.00;99.90
57664;DHT22;43493;53.098;6.064;2023-12-29T12:17:59;8.90;99.90
57664;DHT22;43493;53.098;6.064;2023-12-29T12:20:25;8.90;99.90
57664;DHT22;43493;53.098;6.064;2023-12-29T12:22:59;8.90;99.90
57664;DHT22;43493;53.098;6.064;2023-12-29T12:25:29;8.90;99.90
57664;DHT22;43493;53.098;6.064;2023-12-29T12:27:56;8.80;99.90
57664;DHT22;43493;53.098;6.064;2023-12-29T12:30:22;8.70;99.90
57664;DHT22;43493;53.098;6.064;2023-12-29T12:32:58;8.70;99.90
57664;DHT22;43493;53.098;6.064;2023-12-29T12:35:24;8.70;99.90
57664;DHT22;43493;53.098;6.064;2023-12-29T12:40:32;8.70;99.90
57664;DHT22;43493;53.098;6.064;2023-12-29T12:42:58;8.70;99.90
57664;DHT22;43493;53.098;6.064;2023-12-29T12:45:26;8.80;99.90
57664;DHT22;43493;53.098;6.064;2023-12-29T12:47:59;8.80;99.90
57664;DHT22;43493;53.098;6.064;2023-12-29T12:50:26;8.80;99.90
57664;DHT22;43493;53.098;6.064;2023-12-29T12:52:52;8.80;99.90
57664;DHT22;43493;53.098;6.064;2023-12-29T12:55:18;8.80;99.90
57664;DHT22;43493;53.098;6.064;2023-12-29T12:57:44;8.80;99.90
57664;DHT22;43493;53.098;6.064;2023-12-29T13:00:11;8.80;99.90
57664;DHT22;43493;53.098;6.064;2023-12-29T13:02:37;8.80;99.90
57664;DHT22;43493;53.098;6.064;2023-12-29T13:05:03;8.80;99.90
57664;DHT22;43493;53.098;6.064;2023-12-29T13:07:34;8.90;99.90
57664;DHT22;43493;53.098;6.064;2023-12-29T13:10:03;8.90;99.90
57664;DHT22;43493;53.098;6.064;2023-12-29T13:12:29;8.60;99.90
57664;DHT22;43493;53.098;6.064;2023-12-29T13:15:07;8.90;99.90
57664;DHT22;43493;53.098;6.064;2023-12-29T13:17:36;8.90;99.90
57664;DHT22;43493;53.098;6.064;2023-12-29T13:20:01;8.90;99.90
57664;DHT22;43493;53.098;6.064;2023-12-29T13:22:30;8.90;99.90
57664;DHT22;43493;53.098;6.064;2023-12-29T13:24:55;8.90;99.90
57664;DHT22;43493;53.098;6.064;2023-12-29T13:27:22;8.90;99.90
57664;DHT22;43493;53.098;6.064;2023-12-29T13:29:48;8.90;99.90
57664;DHT22;43493;53.098;6.064;2023-12-29T13:32:23;8.90;99.90
57664;DHT22;43493;53.098;6.064;2023-12-29T13:35:08;8.90;99.90
57664;DHT22;43493;53.098;6.064;2023-12-29T13:42:59;8.90;99.90
57664;DHT22;43493;53.098;6.064;2023-12-29T13:45:27;8.80;99.90
57664;DHT22;43493;53.098;6.064;2023-12-29T13:47:53;8.80;99.90
57664;DHT22;43493;53.098;6.064;2023-12-29T13:50:21;8.80;99.90
57664;DHT22;43493;53.098;6.064;2023-12-29T13:52:47;8.80;99.90
57664;DHT22;43493;53.098;6.064;2023-12-29T13:55:24;8.80;99.90
57664;DHT22;43493;53.098;6.064;2023-12-29T13:57:51;8.80;99.90
57664;DHT22;43493;53.098;6.064;2023-12-29T14:00:24;8.80;99.90
57664;DHT22;43493;53.098;6.064;2023-12-29T14:10:34;8.70;99.90
57664;DHT22;43493;53.098;6.064;2023-12-29T14:13:25;8.70;99.90
57664;DHT22;43493;53.098;6.064;2023-12-29T14:15:51;8.70;99.90
57664;DHT22;43493;53.098;6.064;2023-12-29T14:26:23;8.70;99.90
57664;DHT22;43493;53.098;6.064;2023-12-29T14:29:09;8.60;99.90
57664;DHT22;43493;53.098;6.064;2023-12-29T14:31:42;8.60;99.90
57664;DHT22;43493;53.098;6.064;2023-12-29T14:34:10;8.60;99.90
57664;DHT22;43493;53.098;6.064;2023-12-29T14:36:37;8.60;99.90
57664;DHT22;43493;53.098;6.064;2023-12-29T14:39:03;8.60;99.90
57664;DHT22;43493;53.098;6.064;2023-12-29T14:41:30;8.60;99.90
57664;DHT22;43493;53.098;6.064;2023-12-29T14:43:56;8.60;99.90
57664;DHT22;43493;53.098;6.064;2023-12-29T14:46:22;8.60;99.90
57664;DHT22;43493;53.098;6.064;2023-12-29T14:48:48;8.60;99.90
57664;DHT22;43493;53.098;6.064;2023-12-29T14:51:14;8.60;99.90
57664;DHT22;43493;53.098;6.064;2023-12-29T14:53:49;8.50;99.90
57664;DHT22;43493;53.098;6.064;2023-12-29T14:56:15;8.50;99.90
57664;DHT22;43493;53.098;6.064;2023-12-29T14:58:42;8.50;99.90
57664;DHT22;43493;53.098;6.064;2023-12-29T15:01:08;8.60;99.90
57664;DHT22;43493;53.098;6.064;2023-12-29T15:03:34;8.50;99.90
57664;DHT22;43493;53.098;6.064;2023-12-29T15:06:00;8.50;99.90
57664;DHT22;43493;53.098;6.064;2023-12-29T15:08:27;8.50;99.90
57664;DHT22;43493;53.098;6.064;2023-12-29T15:10:57;8.70;99.90
57664;DHT22;43493;53.098;6.064;2023-12-29T15:13:23;8.50;99.90
57664;DHT22;43493;53.098;6.064;2023-12-29T15:15:50;8.50;99.90
57664;DHT22;43493;53.098;6.064;2023-12-29T15:18:16;8.50;99.90
57664;DHT22;43493;53.098;6.064;2023-12-29T15:20:42;8.50;99.90
57664;DHT22;43493;53.098;6.064;2023-12-29T15:23:08;8.50;99.90
57664;DHT22;43493;53.098;6.064;2023-12-29T15:25:34;8.50;99.90
57664;DHT22;43493;53.098;6.064;2023-12-29T15:28:00;8.50;99.90
57664;DHT22;43493;53.098;6.064;2023-12-29T15:30:25;8.50;99.90
57664;DHT22;43493;53.098;6.064;2023-12-29T15:32:51;8.50;99.90
57664;DHT22;43493;53.098;6.064;2023-12-29T15:35:17;8.50;99.90
57664;DHT22;43493;53.098;6.064;2023-12-29T15:37:42;8.50;99.90
57664;DHT22;43493;53.098;6.064;2023-12-29T15:40:08;8.50;99.90
57664;DHT22;43493;53.098;6.064;2023-12-29T15:42:35;8.50;99.90
57664;DHT22;43493;53.098;6.064;2023-12-29T15:45:00;8.50;99.90
57664;DHT22;43493;53.098;6.064;2023-12-29T15:47:26;8.40;99.90
57664;DHT22;43493;53.098;6.064;2023-12-29T15:49:52;8.50;99.90
57664;DHT22;43493;53.098;6.064;2023-12-29T15:52:18;8.50;99.90
57664;DHT22;43493;53.098;6.064;2023-12-29T15:54:43;8.50;99.90
57664;DHT22;43493;53.098;6.064;2023-12-29T15:57:09;8.40;99.90
57664;DHT22;43493;53.098;6.064;2023-12-29T15:59:35;8.40;99.90
57664;DHT22;43493;53.098;6.064;2023-12-29T16:02:01;8.50;99.90
57664;DHT22;43493;53.098;6.064;2023-12-29T16:04:27;8.50;99.90
57664;DHT22;43493;53.098;6.064;2023-12-29T16:06:55;8.50;99.90
57664;DHT22;43493;53.098;6.064;2023-12-29T16:09:22;8.50;99.90
57664;DHT22;43493;53.098;6.064;2023-12-29T16:11:47;8.50;99.90
57664;DHT22;43493;53.098;6.064;2023-12-29T16:14:22;8.60;99.90
57664;DHT22;43493;53.098;6.064;2023-12-29T16:16:48;8.60;99.90
57664;DHT22;43493;53.098;6.064;2023-12-29T16:19:13;8.60;99.90
57664;DHT22;43493;53.098;6.064;2023-12-29T16:21:39;8.60;99.90
57664;DHT22;43493;53.098;6.064;2023-12-29T16:24:06;8.60;99.90
57664;DHT22;43493;53.098;6.064;2023-12-29T16:26:32;8.60;99.90
57664;DHT22;43493;53.098;6.064;2023-12-29T16:28:57;8.60;99.90
57664;DHT22;43493;53.098;6.064;2023-12-29T16:31:23;8.60;99.90